Time;durP1;ratioP1;P1;durP2;ratioP2;P2;SDS_P1;SDS_P2;PMS_P1;PMS_P2;Temp;Humidity;BMP_temperature;BMP_pressure;BME280_temperature;BME280_humidity;BME280_pressure;Samples;Min_cycle;Max_cycle;Signal;HPM_P1;HPM_P2
2021/12/14 00:01:14;;;;;;;0.00;0.00;;;5.80;93.80;;;;;;20800708;28;20037;-50
2021/12/14 00:12:07;;;;;;;0.00;0.00;;;6.20;92.60;;;;;;20800189;28;20644;-51
2021/12/14 00:21:51;;;;;;;0.00;0.00;;;6.30;92.20;;;;;;20796068;28;20486;-51
2021/12/14 00:31:56;;;;;;;0.00;0.00;;;6.10;92.40;;;;;;20800049;28;20029;-53
2021/12/14 00:42:00;;;;;;;0.10;0.00;;;6.00;92.90;;;;;;20798348;28;20041;-53
2021/12/14 00:52:05;;;;;;;0.00;0.00;;;5.90;93.50;;;;;;20798574;28;20025;-50
2021/12/14 01:02:21;;;;;;;0.00;0.00;;;6.00;93.30;;;;;;20802340;28;20068;-49
2021/12/14 01:12:49;;;;;;;0.00;0.00;;;6.10;92.50;;;;;;20814716;28;20478;-53
2021/12/14 01:22:59;;;;;;;0.00;0.00;;;6.00;93.10;;;;;;20812361;28;20037;-50
2021/12/14 01:33:07;;;;;;;0.23;0.00;;;5.60;93.90;;;;;;20812057;28;20029;-54
2021/12/14 01:43:10;;;;;;;0.00;0.00;;;5.50;93.90;;;;;;20810898;28;20045;-53
2021/12/14 01:53:15;;;;;;;0.00;0.00;;;5.50;93.70;;;;;;20809661;28;20158;-50
2021/12/14 02:03:20;;;;;;;0.00;0.00;;;5.80;93.40;;;;;;20809782;28;20453;-50
2021/12/14 02:13:47;;;;;;;0.00;0.00;;;5.60;94.10;;;;;;20807834;28;20033;-50
2021/12/14 02:24:01;;;;;;;0.00;0.00;;;5.40;94.40;;;;;;20792792;28;20037;-49
2021/12/14 02:34:05;;;;;;;0.00;0.00;;;5.80;92.90;;;;;;20807809;28;20045;-50
2021/12/14 02:44:09;;;;;;;0.28;0.00;;;5.70;93.30;;;;;;20806199;28;20037;-52
2021/12/14 02:54:20;;;;;;;0.00;0.00;;;5.50;93.90;;;;;;20789161;28;20127;-49
2021/12/14 03:04:24;;;;;;;0.00;0.00;;;5.40;94.40;;;;;;20804525;28;20493;-54
2021/12/14 03:14:27;;;;;;;0.00;0.00;;;5.20;95.20;;;;;;20787942;28;20033;-51
2021/12/14 03:24:30;;;;;;;0.13;0.00;;;4.90;95.10;;;;;;20803344;28;20037;-50
2021/12/14 03:34:37;;;;;;;0.15;0.00;;;4.60;95.90;;;;;;20802297;28;20095;-51
2021/12/14 03:44:48;;;;;;;0.00;0.00;;;4.10;96.50;;;;;;20802677;28;20034;-52
2021/12/14 03:54:56;;;;;;;0.07;0.00;;;4.50;95.10;;;;;;20801623;28;20041;-50
2021/12/14 04:05:04;;;;;;;0.03;0.00;;;4.30;96.70;;;;;;20783554;28;20025;-49
2021/12/14 04:15:10;;;;;;;0.00;0.00;;;4.20;96.80;;;;;;20800496;28;20025;-53
2021/12/14 04:25:13;;;;;;;0.00;0.00;;;3.60;98.20;;;;;;20799108;28;20469;-51
2021/12/14 04:35:18;;;;;;;0.20;0.03;;;3.80;97.40;;;;;;20799616;28;20115;-52
2021/12/14 04:55:56;;;;;;;0.03;0.00;;;4.70;95.30;;;;;;20814520;28;20068;-50
2021/12/14 05:06:17;;;;;;;0.00;0.00;;;4.90;93.40;;;;;;20814437;28;20029;-49
2021/12/14 05:16:25;;;;;;;0.08;0.00;;;5.10;92.10;;;;;;20813781;28;20037;-50
2021/12/14 05:26:30;;;;;;;0.00;0.00;;;5.80;89.80;;;;;;20797542;28;20033;-49
2021/12/14 05:36:33;;;;;;;0.00;0.00;;;6.50;86.80;;;;;;20811272;28;20405;-51
2021/12/14 05:46:37;;;;;;;0.00;0.00;;;6.10;85.60;;;;;;20809287;28;20080;-51
2021/12/14 05:57:03;;;;;;;0.00;0.00;;;6.20;85.10;;;;;;20810882;28;20037;-51
2021/12/14 06:07:08;;;;;;;0.00;0.00;;;6.70;83.20;;;;;;20745775;28;20087;-49
2021/12/14 06:17:12;;;;;;;0.00;0.00;;;6.30;85.60;;;;;;20727772;28;20034;-50
2021/12/14 06:27:18;;;;;;;0.00;0.00;;;5.10;89.80;;;;;;20728320;28;20041;-50
2021/12/14 06:37:29;;;;;;;0.00;0.00;;;4.60;90.50;;;;;;20775899;28;20046;-50
2021/12/14 06:47:34;;;;;;;0.00;0.00;;;4.20;91.70;;;;;;20806623;28;20560;-51
2021/12/14 06:57:37;;;;;;;0.00;0.00;;;4.00;91.60;;;;;;20805941;28;20137;-49
2021/12/14 07:07:53;;;;;;;0.10;0.00;;;4.10;90.70;;;;;;20804517;28;20111;-50
2021/12/14 07:18:05;;;;;;;0.05;0.00;;;4.30;91.90;;;;;;20745152;28;20088;-49
2021/12/14 07:28:07;;;;;;;0.87;0.07;;;4.10;91.00;;;;;;20721073;28;20037;-50
2021/12/14 07:38:18;;;;;;;0.30;0.00;;;4.30;91.10;;;;;;20756400;28;20038;-52
2021/12/14 07:48:37;;;;;;;0.00;0.00;;;4.50;90.10;;;;;;20801072;28;20394;-50
2021/12/14 07:58:44;;;;;;;0.45;0.10;;;5.80;83.80;;;;;;20802533;28;20037;-49
2021/12/14 08:08:53;;;;;;;0.47;0.10;;;7.30;85.80;;;;;;20802579;28;20454;-49
2021/12/14 08:18:56;;;;;;;0.20;0.10;;;7.10;88.50;;;;;;20799700;28;20320;-50
2021/12/14 08:29:13;;;;;;;0.00;0.00;;;7.10;90.00;;;;;;20800357;28;20056;-49
2021/12/14 08:39:23;;;;;;;0.05;0.00;;;7.60;83.90;;;;;;20798907;28;20103;-49
2021/12/14 08:49:25;;;;;;;0.00;0.00;;;8.70;80.20;;;;;;20800405;28;20111;-51
2021/12/14 08:59:30;;;;;;;0.00;0.00;;;9.80;72.10;;;;;;20798582;28;20095;-53
2021/12/14 09:09:33;;;;;;;0.00;0.00;;;9.90;78.20;;;;;;20799817;28;20029;-50
2021/12/14 09:19:42;;;;;;;0.00;0.00;;;10.60;76.90;;;;;;20797403;28;20163;-53
2021/12/14 09:29:44;;;;;;;0.00;0.00;;;11.80;72.50;;;;;;20795546;28;20041;-53
2021/12/14 09:39:52;;;;;;;0.32;0.00;;;13.00;71.40;;;;;;20811646;28;20072;-51
2021/12/14 09:49:56;;;;;;;0.00;0.00;;;13.70;60.60;;;;;;20810930;28;20049;-49
2021/12/14 10:00:06;;;;;;;0.43;0.10;;;13.50;69.40;;;;;;20805407;28;20510;-54
2021/12/14 10:10:18;;;;;;;0.25;0.05;;;13.00;72.20;;;;;;20728887;28;20034;-51
2021/12/14 10:20:39;;;;;;;0.15;0.00;;;13.40;73.60;;;;;;20727776;28;20038;-52
2021/12/14 10:30:54;;;;;;;0.17;0.10;;;13.70;69.20;;;;;;20727761;28;20095;-50
2021/12/14 10:51:36;;;;;;;0.15;0.00;;;11.80;74.50;;;;;;20806834;28;20483;-51
2021/12/14 11:01:42;;;;;;;0.00;0.00;;;11.20;77.50;;;;;;20806249;28;20037;-51
2021/12/14 11:11:53;;;;;;;0.10;0.00;;;10.50;80.00;;;;;;20797123;28;20026;-50
2021/12/14 11:22:13;;;;;;;0.25;0.00;;;10.20;80.90;;;;;;20723952;28;20106;-50
2021/12/14 11:32:24;;;;;;;0.00;0.00;;;9.50;82.10;;;;;;20741456;28;20053;-52
2021/12/14 11:42:27;;;;;;;1.00;0.13;;;9.00;85.60;;;;;;20792462;28;20054;-51
2021/12/14 11:52:50;;;;;;;0.00;0.00;;;8.50;82.30;;;;;;20787080;28;20038;-51
2021/12/14 12:02:54;;;;;;;0.00;0.00;;;8.60;77.70;;;;;;20801389;28;20033;-51
2021/12/14 12:12:56;;;;;;;0.10;0.00;;;9.30;78.30;;;;;;20801708;28;20033;-51
2021/12/14 12:23:09;;;;;;;0.00;0.00;;;9.50;77.60;;;;;;20801176;28;20060;-50
2021/12/14 12:33:34;;;;;;;0.00;0.00;;;9.30;77.50;;;;;;20799982;28;20042;-53
2021/12/14 12:43:39;;;;;;;0.00;0.00;;;9.00;78.40;;;;;;20551202;28;20485;-53
2021/12/14 12:53:41;;;;;;;0.00;0.00;;;8.60;81.40;;;;;;20563695;28;20043;-53
2021/12/14 13:03:44;;;;;;;0.00;0.00;;;8.20;82.80;;;;;;20577607;28;20046;-51
2021/12/14 13:13:50;;;;;;;0.00;0.00;;;8.10;80.30;;;;;;20612038;28;20380;-52
2021/12/14 13:24:12;;;;;;;0.00;0.00;;;8.00;81.40;;;;;;20731427;28;20069;-50
2021/12/14 13:34:18;;;;;;;0.00;0.00;;;7.50;82.40;;;;;;20733393;28;20037;-50
2021/12/14 13:44:21;;;;;;;0.03;0.00;;;7.50;82.20;;;;;;20811296;28;20095;-53
2021/12/14 13:54:24;;;;;;;0.10;0.00;;;7.40;82.10;;;;;;20810780;28;20072;-51
2021/12/14 14:04:30;;;;;;;0.00;0.00;;;7.30;83.90;;;;;;20810449;28;20042;-53
2021/12/14 14:14:35;;;;;;;0.00;0.00;;;7.00;85.50;;;;;;20809217;28;20041;-50
2021/12/14 14:24:42;;;;;;;0.00;0.00;;;6.60;86.10;;;;;;20809980;28;20083;-54
2021/12/14 14:34:54;;;;;;;0.10;0.00;;;6.20;86.10;;;;;;20807927;28;20155;-52
2021/12/14 14:45:09;;;;;;;0.00;0.00;;;6.00;89.20;;;;;;20807377;28;20448;-55
2021/12/14 14:55:28;;;;;;;0.00;0.00;;;5.90;89.50;;;;;;20806632;28;20042;-52
2021/12/14 15:05:35;;;;;;;0.08;0.00;;;5.80;88.80;;;;;;20806790;28;20041;-52
2021/12/14 15:15:37;;;;;;;0.00;0.00;;;5.60;89.90;;;;;;20805203;28;20187;-51
2021/12/14 15:25:41;;;;;;;0.00;0.00;;;5.30;90.40;;;;;;20804637;28;20029;-50
2021/12/14 15:36:07;;;;;;;0.10;0.00;;;5.00;90.30;;;;;;20803827;28;20490;-49
2021/12/14 15:46:25;;;;;;;0.00;0.00;;;5.00;86.90;;;;;;20802398;28;20037;-50
2021/12/14 15:56:40;;;;;;;0.00;0.00;;;5.10;90.40;;;;;;20803283;28;20030;-51
2021/12/14 16:06:46;;;;;;;0.00;0.00;;;4.90;90.20;;;;;;20740747;28;20061;-51
2021/12/14 16:16:50;;;;;;;0.08;0.00;;;4.80;88.90;;;;;;20718849;28;20103;-51
2021/12/14 16:26:54;;;;;;;0.00;0.00;;;4.90;89.90;;;;;;20718073;28;20042;-49
2021/12/14 16:37:00;;;;;;;0.00;0.00;;;4.90;91.10;;;;;;20764734;28;20041;-51
2021/12/14 16:47:05;;;;;;;0.10;0.00;;;4.90;88.20;;;;;;20798997;28;20049;-51
2021/12/14 16:57:15;;;;;;;0.45;0.00;;;5.20;89.40;;;;;;20798268;28;20473;-51
2021/12/14 17:07:22;;;;;;;0.08;0.00;;;5.00;89.30;;;;;;20799395;28;20083;-52
2021/12/14 17:17:29;;;;;;;0.00;0.00;;;5.10;89.30;;;;;;20743870;28;20092;-54
2021/12/14 17:27:35;;;;;;;0.00;0.00;;;5.10;89.00;;;;;;20716779;28;20038;-51
2021/12/14 17:37:48;;;;;;;0.00;0.00;;;5.20;88.70;;;;;;20745595;28;20072;-50
2021/12/14 17:47:55;;;;;;;0.00;0.00;;;5.10;88.60;;;;;;20791068;28;20084;-53
2021/12/14 17:58:02;;;;;;;0.15;0.00;;;5.30;85.80;;;;;;20811174;28;20367;-52
2021/12/14 18:08:07;;;;;;;0.32;0.05;;;5.50;85.60;;;;;;20794690;28;20095;-50
2021/12/14 18:28:33;;;;;;;0.00;0.00;;;5.00;89.90;;;;;;20808402;28;20033;-51
2021/12/14 18:38:40;;;;;;;0.00;0.00;;;5.00;87.50;;;;;;20807075;28;20045;-54
2021/12/14 18:59:24;;;;;;;;;;;5.10;89.70;;;;;;20805625;28;20033;-51
2021/12/14 19:09:31;;;;;;;0.00;0.00;;;5.00;90.10;;;;;;20804886;28;19917;-50
2021/12/14 19:19:36;;;;;;;0.00;0.00;;;4.70;90.00;;;;;;20803881;28;20056;-50
2021/12/14 19:29:52;;;;;;;0.03;0.00;;;4.90;88.60;;;;;;20803177;28;20029;-53
2021/12/14 19:39:58;;;;;;;0.00;0.00;;;4.80;87.50;;;;;;20802618;28;20073;-52
2021/12/14 19:50:14;;;;;;;0.00;0.00;;;4.80;89.60;;;;;;20801512;28;20046;-50
2021/12/14 20:00:27;;;;;;;0.00;0.00;;;4.50;91.70;;;;;;20793312;28;20177;-51
2021/12/14 20:10:30;;;;;;;0.00;0.00;;;4.20;91.50;;;;;;20701744;28;20092;-50
2021/12/14 20:20:38;;;;;;;0.25;0.00;;;4.20;90.70;;;;;;20719172;28;20045;-51
2021/12/14 20:30:50;;;;;;;0.00;0.00;;;4.00;90.50;;;;;;20702124;28;20387;-49
2021/12/14 20:40:54;;;;;;;0.10;0.00;;;4.10;90.80;;;;;;20796548;28;20111;-50
2021/12/14 20:51:05;;;;;;;0.00;0.00;;;4.00;90.80;;;;;;20798986;28;20406;-52
2021/12/14 21:01:09;;;;;;;0.10;0.00;;;4.30;91.50;;;;;;20798984;28;20159;-49
2021/12/14 21:11:12;;;;;;;0.00;0.00;;;4.00;91.90;;;;;;20797193;28;20363;-51
2021/12/14 21:21:16;;;;;;;0.00;0.00;;;3.80;91.70;;;;;;20697883;28;20099;-52
2021/12/14 21:31:20;;;;;;;0.00;0.00;;;4.00;90.10;;;;;;20730631;28;20046;-51
2021/12/14 21:41:36;;;;;;;0.00;0.00;;;4.00;87.70;;;;;;20792078;28;20444;-49
2021/12/14 21:52:19;;;;;;;0.00;0.00;;;4.00;90.40;;;;;;20826141;28;20042;-51
2021/12/14 22:02:24;;;;;;;0.00;0.00;;;4.00;91.60;;;;;;20810648;28;20544;-51
2021/12/14 22:12:29;;;;;;;0.17;0.00;;;3.60;92.20;;;;;;20809184;28;20114;-52
2021/12/14 22:22:32;;;;;;;0.57;0.00;;;3.60;91.50;;;;;;20808871;28;20390;-49
2021/12/14 22:32:35;;;;;;;0.00;0.00;;;3.60;91.50;;;;;;20808083;28;20041;-51
2021/12/14 22:52:41;;;;;;;0.10;0.00;;;3.40;91.20;;;;;;20742185;28;20034;-53
2021/12/14 23:02:44;;;;;;;0.00;0.00;;;3.90;89.30;;;;;;20740927;28;20038;-49
2021/12/14 23:12:51;;;;;;;0.00;0.00;;;4.30;90.30;;;;;;20723479;28;20061;-49
2021/12/14 23:22:54;;;;;;;0.00;0.00;;;4.60;88.80;;;;;;20722127;28;20399;-52
2021/12/14 23:32:57;;;;;;;0.00;0.00;;;4.80;86.80;;;;;;20755272;28;20033;-50
2021/12/14 23:43:00;;;;;;;0.00;0.00;;;5.20;85.80;;;;;;20794143;28;20560;-53
2021/12/14 23:53:06;;;;;;;0.08;0.00;;;5.40;85.60;;;;;;20801033;28;20045;-50
